Aktualne dane pomiarowe

Uwaga, wersja testowa! Automatyczne pobieranie danych za pomocą narzędzi lub skryptów to umożliwiających jest zabronione.

Dane meteo z obszaru Polski uzyskane na podstawie depesz SYNOP pobieranych co godzinę z NWS. Najedź myszką na symbol przedstawiony w tabeli, aby uzyskać informacje co do jego znaczenia. Prosimy pamiętać, że to testowa wersja strony, która jeszcze nie jest ukończona. Stworzono również jest krótki FAQ dotyczący korzystania z tej podstrony Anomalie temperatury w chwili obecnej odniesione są do okresu referencyjnego 1951-2016. Okres ten będzie później zmieniony na 1981-2010. Kliknij ikonę aby pobrać plik CSV. Kliknij ikonę aby wygenerować mapę synoptyczną dla danego terminu.

Wybierz Datę:    

        

Białystok (12295)

Dane terminowe dla wybranej stacji. Kliknij datę, aby otrzymać dane z tego terminu dla wszystkich stacji.

TemperaturaZachmurzenieWiatrCiśnienieOpadyPogoda
 Data t td wb tx tn tg rh  Nt Nl Cl Cm Ch ws wd g1 g2 wx mslp ppp ch 24h 12h t ww ww w1 w2  
2019-08-08 23:00:00 13.7 12.6 12.9--- 9330.0wxwxwx1wx-1411011.3 993.2 1.0---wx---
2019-08-08 22:00:00 12.8 12.6 12.6--- 9910.0wx-wx1wx--11011.2 993.0 0.9---------
2019-08-08 21:00:00 13.5 12.9 13.0--- 9611.0wx-wx1wx--11010.4 992.3 0.6---------
2019-08-08 20:00:00 14.0 13.2 13.4--- 9519.0wx-1wx---1010.3 992.2 1.1---------
2019-08-08 19:00:00 15.3 13.1 13.8--- 8740.0wx-1wx--11010.1 992.1 1.3---------
2019-08-08 18:00:00 18.2 12.9 14.8 22.9 17.9- 7150.0wxwxwx2wx-1321009.5 991.7 1.3--12------
2019-08-08 17:00:00 20.6 12.0 15.3--- 5850.0wxwxwx3wx-1031008.8 991.1 1.2---------
2019-08-08 16:00:00 21.5 14.2 16.8--- 6335.0wxwxwx5wx10--1008.4 990.8 1.5---------
2019-08-08 15:00:00 21.3 15.2 17.3--- 6828.0wxwxwx4wx---1008.0 990.4 1.5---------
2019-08-08 14:00:00 21.8 15.2 17.5--- 6630.0wxwxwxwx4wx-1041007.5 989.9 1.9---------
2019-08-08 13:00:00 22.4 14.3 17.2--- 6035.0wxwxwx4wx-1341006.8 989.3 1.8---------
2019-08-08 12:00:00 21.9 15.3 17.5--- 6645.0wxwxwx4wx91241006.5 988.9 2.0--6wx-w1w2--
2019-08-08 11:00:00 21.1 15.4 17.3--- 7040.0wxwxwx4wx91241005.6 988.0 1.6---------
2019-08-08 10:00:00 20.1 16.5 17.6--- 8045.0wxwxwx3wx-931005.1 987.5 1.7---------
2019-08-08 09:00:00 18.8 16.9 17.4--- 8926.0wxwxwx4wx-941004.6 986.9 1.5---wx-w1--
2019-08-08 08:00:00 18.2 16.9 17.3--- 9218.0wxwxwx5wx-951004.1 986.4 1.0---------
2019-08-08 07:00:00 18.2 17.4 17.6--- 9526.0wxwxwx4wx--41003.5 985.8 0.4---wx---
2019-08-08 06:00:00 17.9 17.4 17.5 20.0 16.7 15 975.0wxwxwxwx2wx--21003.1 985.4 -0.3 1.2 1.012wx-w1- 5.6
2019-08-08 05:00:00 18.3 18.0 18.1--- 985.0wxwxwx2wx---1003.1 985.4 -1.1---wx-w1--
2019-08-08 04:00:00 17.8 17.6 17.6--- 992.9wxwxwx2wx---1003.1 985.4 -1.2---wx-w1w2--
2019-08-08 03:00:00 17.6 17.3 17.4--- 984.1wxwxwxwx1wx--11003.5 985.7 -1.5---wx-w1--
2019-08-08 02:00:00 17.9 17.4 17.5--- 978.0wxwxwx2wx--21004.3 986.5 -1.0---wx-w1--
2019-08-08 01:00:00 17.6 17.4 17.4--- 9912.0wxwxwxwx1wx--11004.4 986.6 -1.6---------
2019-08-08 00:00:00 17.2 17.0 17.0--- 996.0wxwxwxwx1wx---1005.0 987.2 -1.8---wx---
2019-08-07 23:00:00 16.9 16.7 16.7--- 998.0wx-wxwx1wx--11005.3 987.5 -1.6---wx---
2019-08-07 22:00:00 17.3 17.1 17.1--- 998.0wxwxwxwx1wx--11006.0 988.2 -1.0---wx---
2019-08-07 21:00:00 17.3 17.1 17.1--- 9910.0wxwxwxwx0---01006.8 989.0 -0.2---wx---
2019-08-07 20:00:00 17.1 16.6 16.7--- 9710.0wx-wx1wx---1007.0 989.1 -0.4---wx---
2019-08-07 19:00:00 18.1 17.5 17.7--- 9610.0wx-wxwx0----1007.0 989.2 -0.5---wx---
2019-08-07 18:00:00 20.0 18.5 18.9 23.7 15.9- 9115.0wx-wxwx1wx--11006.9 989.2 -0.9--12------
2019-08-07 17:00:00 21.6 19.7 20.2--- 8920.0wx-wxwx1wx--11007.1 989.5 -1.0---------
2019-08-07 16:00:00 23.7 18.8 20.3--- 7430.0wxwxwxwxwx1wx--11007.2 989.7 -1.0---------
2019-08-07 15:00:00 23.4 18.3 19.9--- 7335.0wxwxwxwx1wx--11007.6 990.1 -1.0---------
2019-08-07 14:00:00 23.4 17.4 19.3--- 6935.0wxwxwxwx2wx---1008.0 990.5 -0.9---------
2019-08-07 13:00:00 23.0 17.5 19.2--- 7126.0wxwxwxwx1wx--11008.2 990.7 -0.6---------
2019-08-07 12:00:00 21.2 16.8 18.2--- 7630.0wxwxwxwx2wx--21008.7 991.1 -0.1--6wx-w1--
2019-08-07 11:00:00 19.9 17.3 18.1--- 8525.0wxwxwxwx2wx--21009.1 991.4 0.0---------
2019-08-07 10:00:00 18.4 17.4 17.7--- 9419.0wxwxwxwxwx1wx--11009.1 991.3 0.4---------
2019-08-07 09:00:00 17.4 16.6 16.8--- 9519.0wx-wx1wx--11009.1 991.2 0.4---wx-w1--
2019-08-07 08:00:00 17.3 16.8 16.9--- 9719.0wxwxwxwx2wx--21009.3 991.4 0.6---------
2019-08-07 07:00:00 17.1 16.9 16.9--- 9916.0wxwxwxwx2wx--21008.8 990.9 0.0---wx---
2019-08-07 06:00:00 15.9 15.9 15.9 20.8 14.0 13 1008.0wxwxwxwx1wx-911008.8 990.8 0.4 14.3 14.012wx-- 8.1
2019-08-07 05:00:00 15.5 15.5 15.5--- 1006.0wxwxwx1wx--11008.8 990.8 0.1---wx-w1w2--
2019-08-07 04:00:00 15.3 15.1 15.1--- 997.0wxwxwx2wx---1008.9 990.9 0.7---wx---
2019-08-07 03:00:00 14.2 14.2 14.2--- 1008.0wx-wxwx1wx-911008.5 990.4 -0.1---wx---
2019-08-07 02:00:00 15.4 15.1 15.2--- 9818.0wx-wx1wx-911008.7 990.7 -1.1---wx---
2019-08-07 01:00:00 14.6 14.6 14.6--- 10011.0wx-wx1wx--11008.2 990.2 -1.8---wx---
2019-08-07 00:00:00 15.3 15.1 15.1--- 9914.0wxwxwxwx1wx-1011008.5 990.5 -2.3- 14.06wx-w1w2--
1.9 ms

 

Print Friendly, PDF & Email